createdAt,value
2023-03-19T00:03:39.687Z,6.98
2023-03-19T00:09:00.718Z,7.09
2023-03-19T00:14:21.466Z,7.24
2023-03-19T00:19:42.243Z,7.20
2023-03-19T00:25:03.399Z,7.19
2023-03-19T00:30:24.772Z,7.26
2023-03-19T00:35:46.289Z,7.36
2023-03-19T00:41:07.516Z,7.31
2023-03-19T00:46:28.576Z,7.45
2023-03-19T00:51:49.305Z,7.55
2023-03-19T00:57:10.220Z,7.37
2023-03-19T01:02:32.215Z,7.10
2023-03-19T01:07:53.174Z,6.98
2023-03-19T01:13:14.762Z,6.93
2023-03-19T01:18:36.303Z,6.96
2023-03-19T01:23:57.974Z,6.50
2023-03-19T01:29:20.266Z,6.34
2023-03-19T01:34:41.187Z,6.18
2023-03-19T01:40:05.979Z,6.01
2023-03-19T01:45:41.294Z,6.11
2023-03-19T01:51:36.096Z,6.07
2023-03-19T01:57:05.787Z,5.79
2023-03-19T02:02:48.609Z,5.74
2023-03-19T02:08:23.780Z,5.68
2023-03-19T02:13:45.211Z,5.71
2023-03-19T02:19:13.358Z,5.86
2023-03-19T02:24:41.790Z,5.72
2023-03-19T02:30:25.660Z,5.87
2023-03-19T02:35:52.121Z,5.79
2023-03-19T02:41:13.396Z,5.95
2023-03-19T02:46:34.207Z,5.84
2023-03-19T02:51:55.137Z,5.94
2023-03-19T02:57:16.511Z,6.16
2023-03-19T03:02:38.603Z,6.13
2023-03-19T03:08:00.118Z,5.90
2023-03-19T03:13:21.374Z,6.05
2023-03-19T03:18:42.420Z,5.98
2023-03-19T03:24:04.166Z,5.86
2023-03-19T03:29:25.050Z,5.75
2023-03-19T03:34:46.477Z,5.57
2023-03-19T03:40:09.666Z,5.56
2023-03-19T03:45:31.048Z,5.76
2023-03-19T03:50:51.793Z,5.90
2023-03-19T03:56:17.755Z,5.79
2023-03-19T04:01:39.022Z,5.77
2023-03-19T04:06:59.868Z,5.89
2023-03-19T04:12:37.855Z,6.03
2023-03-19T04:17:58.608Z,6.05
2023-03-19T04:23:19.686Z,6.13
2023-03-19T04:28:40.611Z,6.02
2023-03-19T04:34:01.250Z,5.69
2023-03-19T04:39:22.784Z,5.67
2023-03-19T04:44:46.150Z,5.74
2023-03-19T04:50:09.440Z,5.92
2023-03-19T04:55:30.166Z,5.90
2023-03-19T05:01:09.728Z,5.81
2023-03-19T05:07:05.791Z,5.93
2023-03-19T05:12:27.136Z,6.07
2023-03-19T05:17:51.224Z,6.08
2023-03-19T05:23:24.050Z,6.13
2023-03-19T05:28:53.445Z,5.88
2023-03-19T05:34:24.600Z,5.85
2023-03-19T05:39:46.091Z,5.95
2023-03-19T05:45:08.489Z,6.00
2023-03-19T05:50:35.288Z,5.77
2023-03-19T05:56:12.201Z,5.61
2023-03-19T06:01:46.564Z,5.43
2023-03-19T06:07:07.704Z,5.40
2023-03-19T06:12:31.202Z,5.66
2023-03-19T06:18:24.150Z,5.64
2023-03-19T06:23:45.763Z,5.68
2023-03-19T06:29:10.778Z,5.67
2023-03-19T06:34:33.547Z,5.83
2023-03-19T06:39:55.565Z,5.53
2023-03-19T06:45:18.933Z,5.62
2023-03-19T06:50:40.470Z,5.83
2023-03-19T06:56:01.551Z,5.97
2023-03-19T07:01:23.309Z,6.13
2023-03-19T07:06:44.204Z,6.08
2023-03-19T07:12:04.998Z,6.17
2023-03-19T07:17:26.028Z,6.20
2023-03-19T07:22:46.661Z,6.35
2023-03-19T07:28:07.500Z,6.44
2023-03-19T07:33:28.130Z,6.78
2023-03-19T07:38:48.821Z,7.02
2023-03-19T07:44:09.544Z,7.05
2023-03-19T07:49:30.370Z,6.96
2023-03-19T07:54:52.433Z,7.03
2023-03-19T08:00:14.625Z,7.23
2023-03-19T08:05:37.745Z,7.14
2023-03-19T08:10:58.618Z,7.10
2023-03-19T08:16:19.290Z,7.15
2023-03-19T08:21:40.133Z,7.22
2023-03-19T08:27:01.267Z,7.17
2023-03-19T08:32:22.001Z,7.15
2023-03-19T08:37:42.952Z,7.22
2023-03-19T08:43:04.172Z,7.27
2023-03-19T08:48:25.340Z,7.27
2023-03-19T08:53:46.567Z,7.37
2023-03-19T08:59:07.992Z,7.56
2023-03-19T09:04:29.122Z,7.60
2023-03-19T09:09:49.886Z,7.68
2023-03-19T09:15:10.986Z,7.75
2023-03-19T09:20:31.583Z,7.77
2023-03-19T09:25:52.690Z,7.93
2023-03-19T09:31:13.698Z,8.17
2023-03-19T09:36:35.031Z,8.36
2023-03-19T09:42:13.455Z,8.47
2023-03-19T09:47:37.665Z,8.73
2023-03-19T09:53:10.310Z,8.97
2023-03-19T09:58:34.619Z,9.22
2023-03-19T10:04:32.922Z,9.29
2023-03-19T10:10:15.046Z,9.37
2023-03-19T10:15:38.432Z,9.51
2023-03-19T10:21:19.172Z,9.53
2023-03-19T10:26:39.675Z,9.66
2023-03-19T10:32:12.889Z,9.74
2023-03-19T10:37:35.687Z,10.00
2023-03-19T10:43:03.825Z,10.22
2023-03-19T10:48:29.336Z,10.36
2023-03-19T10:53:53.052Z,10.44
2023-03-19T10:59:27.038Z,10.59
2023-03-19T11:04:47.893Z,10.76
2023-03-19T11:10:16.352Z,10.84
2023-03-19T11:15:38.717Z,11.00
2023-03-19T11:21:05.436Z,11.15
2023-03-19T11:26:28.697Z,11.35
2023-03-19T11:32:21.573Z,11.41
2023-03-19T11:37:49.397Z,11.50
2023-03-19T11:43:25.079Z,11.41
2023-03-19T11:49:04.184Z,11.43
2023-03-19T11:54:40.741Z,11.40
2023-03-19T12:00:36.764Z,11.45
2023-03-19T12:06:25.173Z,11.46
2023-03-19T12:12:26.629Z,11.57
2023-03-19T12:18:21.660Z,11.64
2023-03-19T12:23:59.382Z,11.81
2023-03-19T12:29:36.564Z,11.93
2023-03-19T12:35:08.972Z,12.04
2023-03-19T12:40:37.484Z,12.04
2023-03-19T12:46:07.012Z,12.21
2023-03-19T12:51:35.591Z,12.25
2023-03-19T12:57:22.801Z,12.31
2023-03-19T13:03:06.179Z,12.41
2023-03-19T13:08:42.466Z,12.42
2023-03-19T13:14:14.409Z,12.36
2023-03-19T13:19:42.239Z,12.44
2023-03-19T13:25:05.770Z,12.77
2023-03-19T13:30:26.979Z,12.59
2023-03-19T13:35:52.019Z,12.50
2023-03-19T13:41:34.759Z,12.41
2023-03-19T13:46:55.803Z,12.39
2023-03-19T13:52:16.287Z,12.40
2023-03-19T13:57:39.298Z,12.38
2023-03-19T14:03:00.521Z,12.37
2023-03-19T14:08:28.478Z,12.40
2023-03-19T14:13:52.542Z,12.44
2023-03-19T14:19:18.500Z,12.41
2023-03-19T14:24:58.501Z,12.31
2023-03-19T14:30:26.089Z,12.32
2023-03-19T14:35:50.064Z,12.39
2023-03-19T14:41:17.412Z,12.24
2023-03-19T14:47:08.779Z,12.17
2023-03-19T14:52:35.136Z,12.10
2023-03-19T14:57:56.716Z,12.14
2023-03-19T15:03:32.038Z,12.16
2023-03-19T15:08:52.754Z,12.17
2023-03-19T15:14:48.907Z,12.13
2023-03-19T15:20:20.807Z,12.12
2023-03-19T15:25:57.020Z,12.08
2023-03-19T15:31:31.752Z,11.98
2023-03-19T15:37:03.194Z,11.92
2023-03-19T15:42:27.579Z,11.90
2023-03-19T15:48:02.610Z,11.88
2023-03-19T15:53:27.449Z,11.77
2023-03-19T15:58:53.281Z,11.76
2023-03-19T16:04:23.359Z,11.85
2023-03-19T16:09:44.305Z,11.84
2023-03-19T16:15:21.977Z,11.73
2023-03-19T16:20:45.978Z,11.78
2023-03-19T16:26:36.118Z,11.80
2023-03-19T16:32:04.166Z,11.82
2023-03-19T16:37:27.819Z,11.66
2023-03-19T16:42:54.124Z,11.61
2023-03-19T16:48:14.759Z,11.56
2023-03-19T16:53:36.097Z,11.29
2023-03-19T16:58:56.993Z,10.98
2023-03-19T17:04:17.921Z,10.83
2023-03-19T17:09:39.083Z,10.71
2023-03-19T17:14:59.924Z,10.82
2023-03-19T17:20:24.100Z,10.88
2023-03-19T17:25:45.652Z,10.89
2023-03-19T17:31:18.973Z,10.79
2023-03-19T17:36:40.329Z,10.81
2023-03-19T17:42:01.114Z,10.82
2023-03-19T17:47:22.067Z,10.68
2023-03-19T17:52:45.235Z,10.65
2023-03-19T17:58:18.323Z,10.71
2023-03-19T18:03:38.852Z,10.44
2023-03-19T18:08:59.798Z,10.37
2023-03-19T18:14:20.903Z,10.39
2023-03-19T18:19:45.197Z,10.31
2023-03-19T18:25:06.640Z,10.25
2023-03-19T18:30:30.667Z,10.27
2023-03-19T18:35:53.716Z,10.22
2023-03-19T18:41:22.660Z,10.15
2023-03-19T18:46:57.083Z,10.36
2023-03-19T18:52:19.612Z,10.34
2023-03-19T18:57:54.884Z,10.39
2023-03-19T19:03:18.441Z,10.20
2023-03-19T19:08:39.280Z,10.06
2023-03-19T19:14:01.212Z,10.09
2023-03-19T19:19:25.080Z,10.17
2023-03-19T19:24:46.677Z,9.96
2023-03-19T19:30:15.731Z,9.87
2023-03-19T19:35:36.903Z,9.79
2023-03-19T19:41:00.442Z,9.82
2023-03-19T19:46:23.758Z,9.96
2023-03-19T19:51:44.348Z,10.04
2023-03-19T19:57:27.073Z,9.96
2023-03-19T20:02:48.607Z,9.93
2023-03-19T20:08:11.943Z,9.95
2023-03-19T20:13:34.926Z,9.75
2023-03-19T20:18:55.926Z,9.83
2023-03-19T20:24:16.970Z,9.79
2023-03-19T20:29:40.121Z,9.81
2023-03-19T20:35:01.197Z,9.74
2023-03-19T20:40:25.664Z,9.57
2023-03-19T20:45:47.165Z,9.38
2023-03-19T20:51:18.698Z,9.27
2023-03-19T20:56:41.967Z,9.05
2023-03-19T21:02:03.181Z,8.85
2023-03-19T21:07:35.436Z,8.91
2023-03-19T21:12:57.753Z,8.86
2023-03-19T21:18:18.691Z,8.81
2023-03-19T21:23:42.050Z,8.94
2023-03-19T21:29:08.194Z,8.89
2023-03-19T21:34:29.513Z,8.84
2023-03-19T21:39:50.802Z,8.81
2023-03-19T21:45:22.175Z,8.82
2023-03-19T21:50:43.283Z,8.89
2023-03-19T21:56:04.127Z,8.96
2023-03-19T22:01:25.478Z,8.99
2023-03-19T22:06:46.840Z,8.98
2023-03-19T22:12:27.563Z,9.02
2023-03-19T22:17:49.911Z,8.95
2023-03-19T22:23:13.746Z,9.08
2023-03-19T22:28:35.046Z,9.17
2023-03-19T22:33:56.091Z,9.22
2023-03-19T22:39:17.725Z,9.12
2023-03-19T22:44:38.403Z,9.12
2023-03-19T22:49:59.475Z,9.15
2023-03-19T22:55:21.159Z,9.09
2023-03-19T23:00:42.335Z,9.09
2023-03-19T23:06:28.808Z,9.00
2023-03-19T23:11:52.695Z,9.07
2023-03-19T23:17:17.606Z,8.98
2023-03-19T23:22:38.721Z,8.98
2023-03-19T23:28:02.137Z,9.03
2023-03-19T23:33:26.815Z,8.87
2023-03-19T23:38:47.665Z,8.92
2023-03-19T23:44:13.729Z,8.84
2023-03-19T23:49:34.689Z,8.85
2023-03-19T23:54:57.025Z,8.81
